sensor_id;sensor_type;location;lat;lon;timestamp;P1;durP1;ratioP1;P2;durP2;ratioP2
9106;SDS011;4589;48.690;8.952;2023-04-25T00:00:49;4.23;;;3.10;;
9106;SDS011;4589;48.690;8.952;2023-04-25T00:03:17;4.17;;;3.50;;
9106;SDS011;4589;48.690;8.952;2023-04-25T00:05:43;3.40;;;3.10;;
9106;SDS011;4589;48.690;8.952;2023-04-25T00:08:09;5.60;;;3.03;;
9106;SDS011;4589;48.690;8.952;2023-04-25T00:10:35;3.53;;;2.87;;
9106;SDS011;4589;48.690;8.952;2023-04-25T00:13:01;3.50;;;3.20;;
9106;SDS011;4589;48.690;8.952;2023-04-25T00:15:27;3.70;;;3.30;;
9106;SDS011;4589;48.690;8.952;2023-04-25T00:17:55;5.40;;;3.80;;
9106;SDS011;4589;48.690;8.952;2023-04-25T00:20:21;3.50;;;3.20;;
9106;SDS011;4589;48.690;8.952;2023-04-25T00:22:48;4.67;;;3.80;;
9106;SDS011;4589;48.690;8.952;2023-04-25T00:25:14;5.30;;;3.83;;
9106;SDS011;4589;48.690;8.952;2023-04-25T00:27:40;3.60;;;3.30;;
9106;SDS011;4589;48.690;8.952;2023-04-25T00:30:06;8.70;;;4.17;;
9106;SDS011;4589;48.690;8.952;2023-04-25T00:32:33;5.50;;;3.27;;
9106;SDS011;4589;48.690;8.952;2023-04-25T00:34:59;4.37;;;3.47;;
9106;SDS011;4589;48.690;8.952;2023-04-25T00:37:24;5.30;;;3.70;;
9106;SDS011;4589;48.690;8.952;2023-04-25T00:39:50;7.20;;;3.83;;
9106;SDS011;4589;48.690;8.952;2023-04-25T00:42:18;5.50;;;3.53;;
9106;SDS011;4589;48.690;8.952;2023-04-25T00:44:44;4.00;;;3.60;;
9106;SDS011;4589;48.690;8.952;2023-04-25T00:47:10;4.80;;;3.50;;
9106;SDS011;4589;48.690;8.952;2023-04-25T00:49:36;3.73;;;3.33;;
9106;SDS011;4589;48.690;8.952;2023-04-25T00:52:02;4.13;;;3.73;;
9106;SDS011;4589;48.690;8.952;2023-04-25T00:54:28;5.60;;;3.33;;
9106;SDS011;4589;48.690;8.952;2023-04-25T00:56:55;6.73;;;4.00;;
9106;SDS011;4589;48.690;8.952;2023-04-25T00:59:21;3.60;;;3.30;;
9106;SDS011;4589;48.690;8.952;2023-04-25T01:01:47;7.10;;;3.90;;
9106;SDS011;4589;48.690;8.952;2023-04-25T01:04:13;3.90;;;3.30;;
9106;SDS011;4589;48.690;8.952;2023-04-25T01:06:39;3.23;;;2.93;;
9106;SDS011;4589;48.690;8.952;2023-04-25T01:09:05;4.20;;;3.80;;
9106;SDS011;4589;48.690;8.952;2023-04-25T01:11:31;5.37;;;3.67;;
9106;SDS011;4589;48.690;8.952;2023-04-25T01:13:57;4.00;;;3.70;;
9106;SDS011;4589;48.690;8.952;2023-04-25T01:16:23;3.97;;;3.57;;
9106;SDS011;4589;48.690;8.952;2023-04-25T01:18:49;5.00;;;3.53;;
9106;SDS011;4589;48.690;8.952;2023-04-25T01:21:16;4.23;;;3.73;;
9106;SDS011;4589;48.690;8.952;2023-04-25T01:23:42;4.90;;;4.07;;
9106;SDS011;4589;48.690;8.952;2023-04-25T01:26:08;4.77;;;4.27;;
9106;SDS011;4589;48.690;8.952;2023-04-25T01:28:35;3.90;;;3.60;;
9106;SDS011;4589;48.690;8.952;2023-04-25T01:31:01;3.97;;;3.13;;
9106;SDS011;4589;48.690;8.952;2023-04-25T01:33:27;3.80;;;3.40;;
9106;SDS011;4589;48.690;8.952;2023-04-25T01:35:53;4.50;;;4.10;;
9106;SDS011;4589;48.690;8.952;2023-04-25T01:38:19;4.40;;;3.70;;
9106;SDS011;4589;48.690;8.952;2023-04-25T01:40:45;5.90;;;3.63;;
9106;SDS011;4589;48.690;8.952;2023-04-25T01:43:12;4.80;;;3.20;;
9106;SDS011;4589;48.690;8.952;2023-04-25T01:45:39;4.47;;;3.83;;
9106;SDS011;4589;48.690;8.952;2023-04-25T01:48:06;4.40;;;3.50;;
9106;SDS011;4589;48.690;8.952;2023-04-25T01:50:33;3.90;;;3.50;;
9106;SDS011;4589;48.690;8.952;2023-04-25T01:52:59;4.70;;;3.97;;
9106;SDS011;4589;48.690;8.952;2023-04-25T01:55:25;5.00;;;3.70;;
9106;SDS011;4589;48.690;8.952;2023-04-25T01:57:51;3.40;;;3.10;;
9106;SDS011;4589;48.690;8.952;2023-04-25T02:00:17;3.40;;;3.10;;
9106;SDS011;4589;48.690;8.952;2023-04-25T02:02:42;5.27;;;2.93;;
9106;SDS011;4589;48.690;8.952;2023-04-25T02:05:08;3.00;;;2.70;;
9106;SDS011;4589;48.690;8.952;2023-04-25T02:07:34;4.77;;;2.70;;
9106;SDS011;4589;48.690;8.952;2023-04-25T02:10:00;5.30;;;3.60;;
9106;SDS011;4589;48.690;8.952;2023-04-25T02:12:27;5.37;;;3.40;;
9106;SDS011;4589;48.690;8.952;2023-04-25T02:14:53;4.10;;;3.70;;
9106;SDS011;4589;48.690;8.952;2023-04-25T02:17:19;3.70;;;3.17;;
9106;SDS011;4589;48.690;8.952;2023-04-25T02:19:46;3.50;;;3.20;;
9106;SDS011;4589;48.690;8.952;2023-04-25T02:22:12;3.23;;;2.93;;
9106;SDS011;4589;48.690;8.952;2023-04-25T02:24:38;3.77;;;3.40;;
9106;SDS011;4589;48.690;8.952;2023-04-25T02:27:04;2.93;;;2.63;;
9106;SDS011;4589;48.690;8.952;2023-04-25T02:29:30;4.30;;;3.30;;
9106;SDS011;4589;48.690;8.952;2023-04-25T02:31:56;3.63;;;3.03;;
9106;SDS011;4589;48.690;8.952;2023-04-25T02:34:22;3.90;;;3.47;;
9106;SDS011;4589;48.690;8.952;2023-04-25T02:36:49;3.13;;;2.83;;
9106;SDS011;4589;48.690;8.952;2023-04-25T02:39:17;3.20;;;2.80;;
9106;SDS011;4589;48.690;8.952;2023-04-25T02:41:43;3.50;;;3.20;;
9106;SDS011;4589;48.690;8.952;2023-04-25T02:44:09;3.93;;;3.63;;
9106;SDS011;4589;48.690;8.952;2023-04-25T02:46:35;4.10;;;3.00;;
9106;SDS011;4589;48.690;8.952;2023-04-25T02:49:01;4.33;;;3.43;;
9106;SDS011;4589;48.690;8.952;2023-04-25T02:51:26;6.37;;;3.27;;
9106;SDS011;4589;48.690;8.952;2023-04-25T02:53:52;2.80;;;2.60;;
9106;SDS011;4589;48.690;8.952;2023-04-25T02:56:18;3.00;;;2.70;;
9106;SDS011;4589;48.690;8.952;2023-04-25T02:58:44;5.17;;;3.07;;
9106;SDS011;4589;48.690;8.952;2023-04-25T03:01:10;4.70;;;2.73;;
9106;SDS011;4589;48.690;8.952;2023-04-25T03:03:36;4.27;;;2.93;;
9106;SDS011;4589;48.690;8.952;2023-04-25T03:06:01;4.90;;;2.70;;
9106;SDS011;4589;48.690;8.952;2023-04-25T03:08:27;3.50;;;2.50;;
9106;SDS011;4589;48.690;8.952;2023-04-25T03:10:57;3.13;;;2.83;;
9106;SDS011;4589;48.690;8.952;2023-04-25T03:13:23;3.43;;;2.60;;
9106;SDS011;4589;48.690;8.952;2023-04-25T03:15:49;3.70;;;2.70;;
9106;SDS011;4589;48.690;8.952;2023-04-25T03:18:15;3.23;;;2.97;;
9106;SDS011;4589;48.690;8.952;2023-04-25T03:20:40;3.83;;;2.80;;
9106;SDS011;4589;48.690;8.952;2023-04-25T03:23:06;3.03;;;2.73;;
9106;SDS011;4589;48.690;8.952;2023-04-25T03:25:32;4.10;;;3.10;;
9106;SDS011;4589;48.690;8.952;2023-04-25T03:27:58;3.60;;;3.20;;
9106;SDS011;4589;48.690;8.952;2023-04-25T03:30:23;3.67;;;3.30;;
9106;SDS011;4589;48.690;8.952;2023-04-25T03:32:49;6.20;;;3.63;;
9106;SDS011;4589;48.690;8.952;2023-04-25T03:35:15;5.40;;;3.20;;
9106;SDS011;4589;48.690;8.952;2023-04-25T03:37:41;4.93;;;3.83;;
9106;SDS011;4589;48.690;8.952;2023-04-25T03:40:10;4.43;;;3.30;;
9106;SDS011;4589;48.690;8.952;2023-04-25T03:42:36;3.83;;;3.53;;
9106;SDS011;4589;48.690;8.952;2023-04-25T03:45:02;7.20;;;3.57;;
9106;SDS011;4589;48.690;8.952;2023-04-25T03:47:28;4.47;;;3.43;;
9106;SDS011;4589;48.690;8.952;2023-04-25T03:49:54;5.97;;;3.93;;
9106;SDS011;4589;48.690;8.952;2023-04-25T03:52:20;5.40;;;3.20;;
9106;SDS011;4589;48.690;8.952;2023-04-25T03:54:46;5.87;;;3.87;;
9106;SDS011;4589;48.690;8.952;2023-04-25T03:57:12;3.80;;;3.20;;
9106;SDS011;4589;48.690;8.952;2023-04-25T03:59:37;4.57;;;3.97;;
9106;SDS011;4589;48.690;8.952;2023-04-25T04:02:03;4.80;;;3.47;;
9106;SDS011;4589;48.690;8.952;2023-04-25T04:04:29;4.73;;;3.30;;
9106;SDS011;4589;48.690;8.952;2023-04-25T04:06:55;4.47;;;4.03;;
9106;SDS011;4589;48.690;8.952;2023-04-25T04:09:21;5.07;;;4.00;;
9106;SDS011;4589;48.690;8.952;2023-04-25T04:11:47;3.40;;;3.10;;
9106;SDS011;4589;48.690;8.952;2023-04-25T04:14:12;5.47;;;3.63;;
9106;SDS011;4589;48.690;8.952;2023-04-25T04:16:38;4.20;;;3.57;;
9106;SDS011;4589;48.690;8.952;2023-04-25T04:19:04;4.30;;;3.70;;
9106;SDS011;4589;48.690;8.952;2023-04-25T04:21:30;4.13;;;3.63;;
9106;SDS011;4589;48.690;8.952;2023-04-25T04:23:56;4.70;;;3.67;;
9106;SDS011;4589;48.690;8.952;2023-04-25T04:26:22;4.53;;;3.43;;
9106;SDS011;4589;48.690;8.952;2023-04-25T04:28:49;5.27;;;4.00;;
9106;SDS011;4589;48.690;8.952;2023-04-25T04:31:19;6.90;;;4.60;;
9106;SDS011;4589;48.690;8.952;2023-04-25T04:33:45;4.10;;;3.63;;
9106;SDS011;4589;48.690;8.952;2023-04-25T04:36:11;10.43;;;3.83;;
9106;SDS011;4589;48.690;8.952;2023-04-25T04:38:37;7.83;;;4.20;;
9106;SDS011;4589;48.690;8.952;2023-04-25T04:41:03;7.20;;;4.20;;
9106;SDS011;4589;48.690;8.952;2023-04-25T04:43:29;6.60;;;4.43;;
9106;SDS011;4589;48.690;8.952;2023-04-25T04:45:55;10.00;;;4.43;;
9106;SDS011;4589;48.690;8.952;2023-04-25T04:48:24;4.10;;;3.70;;
9106;SDS011;4589;48.690;8.952;2023-04-25T04:50:50;4.40;;;3.67;;
9106;SDS011;4589;48.690;8.952;2023-04-25T04:53:15;7.87;;;4.33;;
9106;SDS011;4589;48.690;8.952;2023-04-25T04:55:41;6.53;;;4.97;;
9106;SDS011;4589;48.690;8.952;2023-04-25T04:58:08;4.60;;;3.80;;
9106;SDS011;4589;48.690;8.952;2023-04-25T05:00:33;5.23;;;4.23;;
9106;SDS011;4589;48.690;8.952;2023-04-25T05:03:00;5.03;;;4.27;;
9106;SDS011;4589;48.690;8.952;2023-04-25T05:05:25;5.90;;;4.60;;
9106;SDS011;4589;48.690;8.952;2023-04-25T05:07:51;9.10;;;4.50;;
9106;SDS011;4589;48.690;8.952;2023-04-25T05:10:17;7.30;;;5.00;;
9106;SDS011;4589;48.690;8.952;2023-04-25T05:12:44;6.23;;;4.63;;
9106;SDS011;4589;48.690;8.952;2023-04-25T05:15:10;5.23;;;4.60;;
9106;SDS011;4589;48.690;8.952;2023-04-25T05:17:36;5.47;;;4.67;;
9106;SDS011;4589;48.690;8.952;2023-04-25T05:20:02;7.70;;;5.47;;
9106;SDS011;4589;48.690;8.952;2023-04-25T05:22:30;6.10;;;4.80;;
9106;SDS011;4589;48.690;8.952;2023-04-25T05:24:56;8.60;;;5.40;;
9106;SDS011;4589;48.690;8.952;2023-04-25T05:27:22;5.67;;;4.50;;
9106;SDS011;4589;48.690;8.952;2023-04-25T05:29:48;6.20;;;5.60;;
9106;SDS011;4589;48.690;8.952;2023-04-25T05:32:14;5.90;;;4.73;;
9106;SDS011;4589;48.690;8.952;2023-04-25T05:34:40;5.93;;;4.83;;
9106;SDS011;4589;48.690;8.952;2023-04-25T05:37:06;10.30;;;5.37;;
9106;SDS011;4589;48.690;8.952;2023-04-25T05:39:32;6.40;;;5.37;;
9106;SDS011;4589;48.690;8.952;2023-04-25T05:41:58;5.97;;;4.53;;
9106;SDS011;4589;48.690;8.952;2023-04-25T05:44:23;7.10;;;5.43;;
9106;SDS011;4589;48.690;8.952;2023-04-25T05:46:49;5.40;;;4.63;;
9106;SDS011;4589;48.690;8.952;2023-04-25T05:49:15;8.00;;;6.23;;
9106;SDS011;4589;48.690;8.952;2023-04-25T05:51:41;14.37;;;6.30;;
9106;SDS011;4589;48.690;8.952;2023-04-25T05:54:06;10.97;;;5.07;;
9106;SDS011;4589;48.690;8.952;2023-04-25T05:56:32;8.90;;;5.73;;
9106;SDS011;4589;48.690;8.952;2023-04-25T05:58:58;5.97;;;5.37;;
9106;SDS011;4589;48.690;8.952;2023-04-25T06:01:24;5.00;;;4.50;;
9106;SDS011;4589;48.690;8.952;2023-04-25T06:03:50;6.00;;;5.00;;
9106;SDS011;4589;48.690;8.952;2023-04-25T06:06:17;5.57;;;4.90;;
9106;SDS011;4589;48.690;8.952;2023-04-25T06:08:43;6.37;;;5.43;;
9106;SDS011;4589;48.690;8.952;2023-04-25T06:11:09;8.83;;;5.87;;
9106;SDS011;4589;48.690;8.952;2023-04-25T06:13:35;15.47;;;6.17;;
9106;SDS011;4589;48.690;8.952;2023-04-25T06:16:02;8.47;;;6.13;;
9106;SDS011;4589;48.690;8.952;2023-04-25T06:18:27;8.10;;;6.00;;
9106;SDS011;4589;48.690;8.952;2023-04-25T06:20:53;11.53;;;5.90;;
9106;SDS011;4589;48.690;8.952;2023-04-25T06:23:19;9.10;;;5.97;;
9106;SDS011;4589;48.690;8.952;2023-04-25T06:25:45;10.50;;;5.50;;
9106;SDS011;4589;48.690;8.952;2023-04-25T06:28:11;8.30;;;5.60;;
9106;SDS011;4589;48.690;8.952;2023-04-25T06:30:36;12.67;;;6.00;;
9106;SDS011;4589;48.690;8.952;2023-04-25T06:33:02;5.57;;;5.00;;
9106;SDS011;4589;48.690;8.952;2023-04-25T06:35:28;8.23;;;5.40;;
9106;SDS011;4589;48.690;8.952;2023-04-25T06:37:54;7.23;;;5.53;;
9106;SDS011;4589;48.690;8.952;2023-04-25T06:40:20;9.20;;;6.30;;
9106;SDS011;4589;48.690;8.952;2023-04-25T06:42:46;8.07;;;6.20;;
9106;SDS011;4589;48.690;8.952;2023-04-25T06:45:12;6.73;;;5.20;;
9106;SDS011;4589;48.690;8.952;2023-04-25T06:47:37;7.70;;;6.13;;
9106;SDS011;4589;48.690;8.952;2023-04-25T06:50:03;4.63;;;4.10;;
9106;SDS011;4589;48.690;8.952;2023-04-25T06:52:29;7.57;;;5.90;;
9106;SDS011;4589;48.690;8.952;2023-04-25T06:54:55;9.13;;;5.80;;
9106;SDS011;4589;48.690;8.952;2023-04-25T06:57:21;11.37;;;5.03;;
9106;SDS011;4589;48.690;8.952;2023-04-25T06:59:47;6.47;;;4.80;;
9106;SDS011;4589;48.690;8.952;2023-04-25T07:02:12;8.13;;;4.30;;
9106;SDS011;4589;48.690;8.952;2023-04-25T07:04:38;8.00;;;5.27;;
9106;SDS011;4589;48.690;8.952;2023-04-25T07:07:03;8.30;;;5.63;;
9106;SDS011;4589;48.690;8.952;2023-04-25T07:09:29;13.23;;;5.97;;
9106;SDS011;4589;48.690;8.952;2023-04-25T07:11:55;13.50;;;4.67;;
9106;SDS011;4589;48.690;8.952;2023-04-25T07:14:21;16.50;;;7.87;;
9106;SDS011;4589;48.690;8.952;2023-04-25T07:16:47;9.53;;;6.37;;
9106;SDS011;4589;48.690;8.952;2023-04-25T07:19:13;15.13;;;5.50;;
9106;SDS011;4589;48.690;8.952;2023-04-25T07:21:39;5.83;;;5.27;;
9106;SDS011;4589;48.690;8.952;2023-04-25T07:24:04;7.10;;;5.07;;
9106;SDS011;4589;48.690;8.952;2023-04-25T07:26:30;6.90;;;6.20;;
9106;SDS011;4589;48.690;8.952;2023-04-25T07:28:56;7.70;;;6.53;;
9106;SDS011;4589;48.690;8.952;2023-04-25T07:31:21;7.73;;;6.20;;
9106;SDS011;4589;48.690;8.952;2023-04-25T07:33:47;7.50;;;5.93;;
9106;SDS011;4589;48.690;8.952;2023-04-25T07:36:13;6.30;;;5.70;;
9106;SDS011;4589;48.690;8.952;2023-04-25T07:38:40;10.53;;;6.83;;
9106;SDS011;4589;48.690;8.952;2023-04-25T07:41:06;5.30;;;4.67;;
9106;SDS011;4589;48.690;8.952;2023-04-25T07:43:32;7.17;;;6.03;;
9106;SDS011;4589;48.690;8.952;2023-04-25T07:45:58;6.10;;;5.50;;
9106;SDS011;4589;48.690;8.952;2023-04-25T07:48:24;5.90;;;5.30;;
9106;SDS011;4589;48.690;8.952;2023-04-25T07:50:50;6.17;;;5.10;;
9106;SDS011;4589;48.690;8.952;2023-04-25T07:53:16;5.83;;;5.23;;
9106;SDS011;4589;48.690;8.952;2023-04-25T07:55:43;5.33;;;4.83;;
9106;SDS011;4589;48.690;8.952;2023-04-25T07:58:09;7.90;;;5.90;;
9106;SDS011;4589;48.690;8.952;2023-04-25T08:00:36;5.50;;;4.30;;
9106;SDS011;4589;48.690;8.952;2023-04-25T08:03:02;6.87;;;5.20;;
9106;SDS011;4589;48.690;8.952;2023-04-25T08:05:27;5.90;;;5.30;;
9106;SDS011;4589;48.690;8.952;2023-04-25T08:07:53;7.27;;;5.50;;
9106;SDS011;4589;48.690;8.952;2023-04-25T08:10:20;6.63;;;5.40;;
9106;SDS011;4589;48.690;8.952;2023-04-25T08:12:47;7.67;;;6.50;;
9106;SDS011;4589;48.690;8.952;2023-04-25T08:15:13;6.07;;;5.17;;
9106;SDS011;4589;48.690;8.952;2023-04-25T08:17:40;5.30;;;4.67;;
9106;SDS011;4589;48.690;8.952;2023-04-25T08:20:06;7.00;;;5.40;;
9106;SDS011;4589;48.690;8.952;2023-04-25T08:22:32;6.97;;;5.50;;
9106;SDS011;4589;48.690;8.952;2023-04-25T08:24:59;8.50;;;6.20;;
9106;SDS011;4589;48.690;8.952;2023-04-25T08:27:25;6.27;;;5.00;;
9106;SDS011;4589;48.690;8.952;2023-04-25T08:29:50;8.13;;;5.53;;
9106;SDS011;4589;48.690;8.952;2023-04-25T08:32:16;6.30;;;5.10;;
9106;SDS011;4589;48.690;8.952;2023-04-25T08:34:42;8.50;;;5.73;;
9106;SDS011;4589;48.690;8.952;2023-04-25T08:37:09;8.07;;;5.90;;
9106;SDS011;4589;48.690;8.952;2023-04-25T08:39:35;6.57;;;5.50;;
9106;SDS011;4589;48.690;8.952;2023-04-25T08:42:05;8.97;;;6.37;;
9106;SDS011;4589;48.690;8.952;2023-04-25T08:44:35;7.40;;;6.50;;
9106;SDS011;4589;48.690;8.952;2023-04-25T08:47:02;9.63;;;6.43;;
9106;SDS011;4589;48.690;8.952;2023-04-25T08:49:30;6.80;;;6.17;;
9106;SDS011;4589;48.690;8.952;2023-04-25T08:51:59;7.83;;;6.57;;
9106;SDS011;4589;48.690;8.952;2023-04-25T08:54:26;7.20;;;6.00;;
9106;SDS011;4589;48.690;8.952;2023-04-25T08:56:54;7.20;;;6.03;;
9106;SDS011;4589;48.690;8.952;2023-04-25T08:59:22;6.57;;;4.97;;
9106;SDS011;4589;48.690;8.952;2023-04-25T09:01:51;6.53;;;5.20;;
9106;SDS011;4589;48.690;8.952;2023-04-25T09:04:17;9.23;;;5.03;;
9106;SDS011;4589;48.690;8.952;2023-04-25T09:06:44;6.23;;;5.53;;
9106;SDS011;4589;48.690;8.952;2023-04-25T09:09:10;5.20;;;4.57;;
9106;SDS011;4589;48.690;8.952;2023-04-25T09:11:36;7.17;;;5.20;;
9106;SDS011;4589;48.690;8.952;2023-04-25T09:14:12;6.03;;;4.33;;
9106;SDS011;4589;48.690;8.952;2023-04-25T09:19:24;5.67;;;4.00;;
9106;SDS011;4589;48.690;8.952;2023-04-25T09:21:54;4.90;;;4.40;;
9106;SDS011;4589;48.690;8.952;2023-04-25T09:24:29;4.20;;;3.60;;
9106;SDS011;4589;48.690;8.952;2023-04-25T09:27:06;6.63;;;3.80;;
9106;SDS011;4589;48.690;8.952;2023-04-25T09:29:35;5.30;;;3.40;;
9106;SDS011;4589;48.690;8.952;2023-04-25T09:34:40;3.87;;;2.77;;
9106;SDS011;4589;48.690;8.952;2023-04-25T09:37:16;2.10;;;1.93;;
9106;SDS011;4589;48.690;8.952;2023-04-25T09:39:47;2.20;;;2.00;;
9106;SDS011;4589;48.690;8.952;2023-04-25T09:42:14;2.00;;;1.73;;
9106;SDS011;4589;48.690;8.952;2023-04-25T09:44:44;1.87;;;1.73;;
9106;SDS011;4589;48.690;8.952;2023-04-25T09:47:11;1.60;;;1.50;;
9106;SDS011;4589;48.690;8.952;2023-04-25T09:49:39;2.50;;;2.10;;
9106;SDS011;4589;48.690;8.952;2023-04-25T09:52:09;2.47;;;1.97;;
9106;SDS011;4589;48.690;8.952;2023-04-25T09:54:46;1.57;;;1.47;;
9106;SDS011;4589;48.690;8.952;2023-04-25T09:59:58;2.10;;;1.90;;
9106;SDS011;4589;48.690;8.952;2023-04-25T10:02:26;1.83;;;1.50;;
9106;SDS011;4589;48.690;8.952;2023-04-25T10:04:53;1.80;;;1.70;;
9106;SDS011;4589;48.690;8.952;2023-04-25T10:07:23;1.90;;;1.27;;
9106;SDS011;4589;48.690;8.952;2023-04-25T10:09:54;1.53;;;1.37;;
9106;SDS011;4589;48.690;8.952;2023-04-25T10:12:24;1.10;;;0.90;;
9106;SDS011;4589;48.690;8.952;2023-04-25T10:14:51;1.23;;;1.13;;
9106;SDS011;4589;48.690;8.952;2023-04-25T10:17:17;2.50;;;1.40;;
9106;SDS011;4589;48.690;8.952;2023-04-25T10:19:46;1.63;;;1.10;;
9106;SDS011;4589;48.690;8.952;2023-04-25T10:22:20;1.20;;;1.10;;
9106;SDS011;4589;48.690;8.952;2023-04-25T10:24:53;1.73;;;1.10;;
9106;SDS011;4589;48.690;8.952;2023-04-25T10:27:21;1.40;;;1.10;;
9106;SDS011;4589;48.690;8.952;2023-04-25T10:29:52;1.50;;;1.10;;
9106;SDS011;4589;48.690;8.952;2023-04-25T10:32:26;1.30;;;1.20;;
9106;SDS011;4589;48.690;8.952;2023-04-25T10:34:51;1.53;;;1.17;;
9106;SDS011;4589;48.690;8.952;2023-04-25T10:37:17;1.87;;;1.40;;
9106;SDS011;4589;48.690;8.952;2023-04-25T10:39:44;1.50;;;1.13;;
9106;SDS011;4589;48.690;8.952;2023-04-25T10:42:11;1.67;;;1.57;;
9106;SDS011;4589;48.690;8.952;2023-04-25T10:44:37;1.77;;;1.50;;
9106;SDS011;4589;48.690;8.952;2023-04-25T10:47:06;1.77;;;1.67;;
9106;SDS011;4589;48.690;8.952;2023-04-25T10:49:36;2.07;;;1.87;;
9106;SDS011;4589;48.690;8.952;2023-04-25T10:52:12;1.30;;;1.17;;
9106;SDS011;4589;48.690;8.952;2023-04-25T10:54:54;1.10;;;1.00;;
9106;SDS011;4589;48.690;8.952;2023-04-25T11:02:36;1.20;;;1.10;;
9106;SDS011;4589;48.690;8.952;2023-04-25T11:05:03;3.90;;;1.20;;
9106;SDS011;4589;48.690;8.952;2023-04-25T11:07:40;1.20;;;1.10;;
9106;SDS011;4589;48.690;8.952;2023-04-25T11:10:16;1.37;;;1.27;;
9106;SDS011;4589;48.690;8.952;2023-04-25T11:12:42;1.80;;;1.47;;
9106;SDS011;4589;48.690;8.952;2023-04-25T11:15:09;4.40;;;2.90;;
9106;SDS011;4589;48.690;8.952;2023-04-25T11:17:35;1.70;;;1.60;;
9106;SDS011;4589;48.690;8.952;2023-04-25T11:20:00;5.23;;;4.03;;
9106;SDS011;4589;48.690;8.952;2023-04-25T11:22:29;4.10;;;2.53;;
9106;SDS011;4589;48.690;8.952;2023-04-25T11:24:55;2.20;;;1.73;;
9106;SDS011;4589;48.690;8.952;2023-04-25T11:27:21;4.40;;;3.20;;
9106;SDS011;4589;48.690;8.952;2023-04-25T11:29:46;4.30;;;3.57;;
9106;SDS011;4589;48.690;8.952;2023-04-25T11:32:14;4.57;;;4.07;;
9106;SDS011;4589;48.690;8.952;2023-04-25T11:34:42;6.20;;;4.87;;
9106;SDS011;4589;48.690;8.952;2023-04-25T11:37:08;3.60;;;3.30;;
9106;SDS011;4589;48.690;8.952;2023-04-25T11:39:34;3.53;;;2.90;;
9106;SDS011;4589;48.690;8.952;2023-04-25T11:42:00;3.43;;;2.73;;
9106;SDS011;4589;48.690;8.952;2023-04-25T11:44:26;4.13;;;3.33;;
9106;SDS011;4589;48.690;8.952;2023-04-25T11:46:52;5.33;;;4.17;;
9106;SDS011;4589;48.690;8.952;2023-04-25T11:49:18;5.63;;;3.77;;
9106;SDS011;4589;48.690;8.952;2023-04-25T11:51:45;7.40;;;5.03;;
9106;SDS011;4589;48.690;8.952;2023-04-25T11:54:12;7.17;;;6.23;;
9106;SDS011;4589;48.690;8.952;2023-04-25T11:56:41;4.97;;;4.33;;
9106;SDS011;4589;48.690;8.952;2023-04-25T11:59:08;3.90;;;3.47;;
9106;SDS011;4589;48.690;8.952;2023-04-25T12:01:34;5.37;;;3.73;;
9106;SDS011;4589;48.690;8.952;2023-04-25T12:04:15;3.97;;;3.57;;
9106;SDS011;4589;48.690;8.952;2023-04-25T12:06:45;9.20;;;4.00;;
9106;SDS011;4589;48.690;8.952;2023-04-25T12:09:16;6.83;;;4.60;;
9106;SDS011;4589;48.690;8.952;2023-04-25T12:11:55;6.20;;;4.80;;
9106;SDS011;4589;48.690;8.952;2023-04-25T12:14:26;13.10;;;5.97;;
9106;SDS011;4589;48.690;8.952;2023-04-25T12:17:00;8.30;;;6.07;;
9106;SDS011;4589;48.690;8.952;2023-04-25T12:19:31;11.40;;;7.07;;
9106;SDS011;4589;48.690;8.952;2023-04-25T12:21:58;10.97;;;7.00;;
9106;SDS011;4589;48.690;8.952;2023-04-25T12:24:28;9.03;;;7.10;;
9106;SDS011;4589;48.690;8.952;2023-04-25T12:29:30;11.13;;;7.40;;
9106;SDS011;4589;48.690;8.952;2023-04-25T12:31:57;12.00;;;8.40;;
9106;SDS011;4589;48.690;8.952;2023-04-25T12:34:23;8.60;;;6.80;;
9106;SDS011;4589;48.690;8.952;2023-04-25T12:36:50;16.13;;;7.63;;
9106;SDS011;4589;48.690;8.952;2023-04-25T12:39:17;10.87;;;8.00;;
9106;SDS011;4589;48.690;8.952;2023-04-25T12:41:44;11.03;;;6.13;;
9106;SDS011;4589;48.690;8.952;2023-04-25T12:44:10;10.30;;;7.07;;
9106;SDS011;4589;48.690;8.952;2023-04-25T12:46:37;11.93;;;8.07;;
9106;SDS011;4589;48.690;8.952;2023-04-25T12:49:03;20.73;;;10.60;;
9106;SDS011;4589;48.690;8.952;2023-04-25T12:51:29;14.47;;;10.13;;
9106;SDS011;4589;48.690;8.952;2023-04-25T12:53:57;14.40;;;9.40;;
9106;SDS011;4589;48.690;8.952;2023-04-25T12:56:23;9.97;;;7.10;;
9106;SDS011;4589;48.690;8.952;2023-04-25T12:58:50;9.63;;;7.20;;
9106;SDS011;4589;48.690;8.952;2023-04-25T13:01:17;10.93;;;6.73;;
9106;SDS011;4589;48.690;8.952;2023-04-25T13:03:43;11.67;;;8.40;;
9106;SDS011;4589;48.690;8.952;2023-04-25T13:06:08;10.50;;;7.53;;
9106;SDS011;4589;48.690;8.952;2023-04-25T13:08:35;14.80;;;8.30;;
9106;SDS011;4589;48.690;8.952;2023-04-25T13:11:01;9.20;;;7.33;;
9106;SDS011;4589;48.690;8.952;2023-04-25T13:13:27;10.93;;;7.10;;
9106;SDS011;4589;48.690;8.952;2023-04-25T13:15:56;11.63;;;10.23;;
9106;SDS011;4589;48.690;8.952;2023-04-25T13:18:22;10.67;;;8.40;;
9106;SDS011;4589;48.690;8.952;2023-04-25T13:20:52;10.23;;;8.60;;
9106;SDS011;4589;48.690;8.952;2023-04-25T13:23:18;9.07;;;7.90;;
9106;SDS011;4589;48.690;8.952;2023-04-25T13:25:44;8.57;;;6.90;;
9106;SDS011;4589;48.690;8.952;2023-04-25T13:28:09;8.97;;;7.43;;
9106;SDS011;4589;48.690;8.952;2023-04-25T13:30:35;11.67;;;8.10;;
9106;SDS011;4589;48.690;8.952;2023-04-25T13:33:01;9.90;;;7.10;;
9106;SDS011;4589;48.690;8.952;2023-04-25T13:35:28;9.33;;;6.80;;
9106;SDS011;4589;48.690;8.952;2023-04-25T13:37:55;6.70;;;5.67;;
9106;SDS011;4589;48.690;8.952;2023-04-25T13:40:21;5.27;;;4.30;;
9106;SDS011;4589;48.690;8.952;2023-04-25T13:42:46;7.13;;;5.93;;
9106;SDS011;4589;48.690;8.952;2023-04-25T13:45:12;9.90;;;6.73;;
9106;SDS011;4589;48.690;8.952;2023-04-25T13:47:38;10.10;;;6.70;;
9106;SDS011;4589;48.690;8.952;2023-04-25T13:50:04;10.70;;;6.90;;
9106;SDS011;4589;48.690;8.952;2023-04-25T13:52:30;7.50;;;6.73;;
9106;SDS011;4589;48.690;8.952;2023-04-25T13:54:56;7.13;;;6.33;;
9106;SDS011;4589;48.690;8.952;2023-04-25T13:57:22;7.53;;;6.43;;
9106;SDS011;4589;48.690;8.952;2023-04-25T13:59:48;10.40;;;7.10;;
9106;SDS011;4589;48.690;8.952;2023-04-25T14:02:14;10.13;;;7.20;;
9106;SDS011;4589;48.690;8.952;2023-04-25T14:04:41;10.60;;;8.00;;
9106;SDS011;4589;48.690;8.952;2023-04-25T14:07:06;7.40;;;6.37;;
9106;SDS011;4589;48.690;8.952;2023-04-25T14:09:32;9.63;;;6.57;;
9106;SDS011;4589;48.690;8.952;2023-04-25T14:11:58;8.67;;;6.80;;
9106;SDS011;4589;48.690;8.952;2023-04-25T14:14:24;8.00;;;6.67;;
9106;SDS011;4589;48.690;8.952;2023-04-25T14:16:50;10.10;;;6.60;;
9106;SDS011;4589;48.690;8.952;2023-04-25T14:19:18;7.90;;;6.50;;
9106;SDS011;4589;48.690;8.952;2023-04-25T14:21:45;7.33;;;6.50;;
9106;SDS011;4589;48.690;8.952;2023-04-25T14:24:11;9.23;;;6.53;;
9106;SDS011;4589;48.690;8.952;2023-04-25T14:26:37;8.23;;;5.63;;
9106;SDS011;4589;48.690;8.952;2023-04-25T14:29:04;7.10;;;5.00;;
9106;SDS011;4589;48.690;8.952;2023-04-25T14:31:31;7.50;;;4.93;;
9106;SDS011;4589;48.690;8.952;2023-04-25T14:33:57;5.93;;;5.27;;
9106;SDS011;4589;48.690;8.952;2023-04-25T14:36:22;7.27;;;5.37;;
9106;SDS011;4589;48.690;8.952;2023-04-25T14:38:48;8.87;;;5.47;;
9106;SDS011;4589;48.690;8.952;2023-04-25T14:41:14;11.50;;;7.70;;
9106;SDS011;4589;48.690;8.952;2023-04-25T14:43:40;20.93;;;12.30;;
9106;SDS011;4589;48.690;8.952;2023-04-25T14:46:06;4.37;;;3.97;;
9106;SDS011;4589;48.690;8.952;2023-04-25T14:48:33;4.53;;;3.60;;
9106;SDS011;4589;48.690;8.952;2023-04-25T14:51:00;5.30;;;4.60;;
9106;SDS011;4589;48.690;8.952;2023-04-25T14:53:26;3.57;;;3.27;;
9106;SDS011;4589;48.690;8.952;2023-04-25T14:55:52;3.33;;;3.03;;
9106;SDS011;4589;48.690;8.952;2023-04-25T14:58:18;4.83;;;3.37;;
9106;SDS011;4589;48.690;8.952;2023-04-25T15:00:45;3.43;;;3.13;;
9106;SDS011;4589;48.690;8.952;2023-04-25T15:03:11;5.33;;;3.23;;
9106;SDS011;4589;48.690;8.952;2023-04-25T15:05:38;3.57;;;3.27;;
9106;SDS011;4589;48.690;8.952;2023-04-25T15:08:04;3.77;;;2.87;;
9106;SDS011;4589;48.690;8.952;2023-04-25T15:10:30;3.20;;;2.90;;
9106;SDS011;4589;48.690;8.952;2023-04-25T15:12:55;2.80;;;2.60;;
9106;SDS011;4589;48.690;8.952;2023-04-25T15:15:21;3.60;;;2.57;;
9106;SDS011;4589;48.690;8.952;2023-04-25T15:17:48;2.27;;;2.07;;
9106;SDS011;4589;48.690;8.952;2023-04-25T15:20:15;2.57;;;2.30;;
9106;SDS011;4589;48.690;8.952;2023-04-25T15:22:42;2.57;;;2.37;;
9106;SDS011;4589;48.690;8.952;2023-04-25T15:25:09;2.60;;;2.40;;